Time;durP1;ratioP1;P1;durP2;ratioP2;P2;SDS_P1;SDS_P2;PMS_P1;PMS_P2;Temp;Humidity;BMP_temperature;BMP_pressure;BME280_temperature;BME280_humidity;BME280_pressure;Samples;Min_cycle;Max_cycle;Signal;HPM_P1;HPM_P2
2022/08/08 00:00:54;;;;;;;;;;;;;;;23.99;42.85;100143.03;4440986;32;33926;-84
2022/08/08 00:03:38;;;;;;;;;;;;;;;23.99;42.66;100135.78;4440459;32;33748;-84
2022/08/08 00:06:25;;;;;;;;;;;;;;;23.85;42.62;100138.94;4440030;32;34344;-84
2022/08/08 00:09:21;;;;;;;;;;;;;;;23.85;43.00;100132.69;4443914;32;33795;-84
2022/08/08 00:11:55;;;;;;;;;;;;;;;23.88;42.96;100138.66;4452551;32;33464;-84
2022/08/08 00:14:55;;;;;;;;;;;;;;;23.75;43.30;100133.53;4453907;32;34272;-84
2022/08/08 00:17:47;;;;;;;;;;;;;;;23.81;43.09;100137.50;4439148;32;33070;-84
2022/08/08 00:20:33;;;;;;;;;;;;;;;23.67;44.26;100140.66;4433045;32;33534;-84
2022/08/08 00:23:09;;;;;;;;;;;;;;;23.66;43.59;100125.47;4440223;32;33635;-85
2022/08/08 00:25:40;;;;;;;;;;;;;;;23.70;44.04;100126.88;4427029;32;33969;-84
2022/08/08 00:28:19;;;;;;;;;;;;;;;23.68;44.08;100116.22;4422496;32;188514;-84
2022/08/08 00:31:21;;;;;;;;;;;;;;;23.51;44.23;100114.25;4426293;32;32999;-84
2022/08/08 00:37:32;;;;;;;;;;;;;;;23.43;44.53;100101.47;4451880;32;33554;-84
2022/08/08 00:40:26;;;;;;;;;;;;;;;23.58;43.63;100101.87;4438959;32;33543;-84
2022/08/08 00:43:35;;;;;;;;;;;;;;;23.68;42.78;100105.44;4441129;32;34147;-84
2022/08/08 00:46:16;;;;;;;;;;;;;;;23.87;42.05;100106.41;4435548;32;32876;-84
2022/08/08 00:48:50;;;;;;;;;;;;;;;23.89;42.25;100112.53;4437924;32;33585;-84
2022/08/08 00:51:46;;;;;;;;;;;;;;;23.64;43.31;100111.25;4437625;32;33477;-84
2022/08/08 00:54:24;;;;;;;;;;;;;;;23.52;44.11;100113.25;4437077;32;34425;-84
2022/08/08 00:57:34;;;;;;;;;;;;;;;23.62;45.15;100111.37;4436073;32;32246;-84
2022/08/08 01:00:06;;;;;;;;;;;;;;;23.76;44.37;100107.44;4404388;32;33798;-84
2022/08/08 01:02:54;;;;;;;;;;;;;;;23.82;43.73;100111.41;4429789;32;33226;-84
2022/08/08 01:06:01;;;;;;;;;;;;;;;23.89;43.03;100102.59;4437181;32;33745;-84
2022/08/08 01:08:48;;;;;;;;;;;;;;;23.69;43.89;100100.91;4437395;32;33450;-84
2022/08/08 01:11:26;;;;;;;;;;;;;;;23.74;44.49;100099.50;4429808;32;33810;-85
2022/08/08 01:14:31;;;;;;;;;;;;;;;23.69;44.77;100100.91;4417870;32;33721;-84
2022/08/08 01:17:19;;;;;;;;;;;;;;;23.77;44.75;100093.78;4435119;32;33614;-84
2022/08/08 01:20:05;;;;;;;;;;;;;;;23.95;43.45;100096.59;4410662;32;32055;-84
2022/08/08 01:22:53;;;;;;;;;;;;;;;24.17;42.63;100106.22;4435014;32;34867;-84
2022/08/08 01:25:26;;;;;;;;;;;;;;;23.74;44.10;100107.59;4428788;32;33682;-84
2022/08/08 01:28:14;;;;;;;;;;;;;;;23.66;43.22;100107.44;4445592;32;35109;-84
2022/08/08 01:31:00;;;;;;;;;;;;;;;23.90;43.24;100108.84;4437326;32;33558;-84
2022/08/08 01:33:48;;;;;;;;;;;;;;;23.82;43.24;100114.09;4437477;32;34692;-84
2022/08/08 01:36:37;;;;;;;;;;;;;;;24.00;42.44;100099.72;4446407;32;34387;-84
2022/08/08 01:39:10;;;;;;;;;;;;;;;24.11;41.76;100096.00;4436086;32;34191;-84
2022/08/08 01:42:00;;;;;;;;;;;;;;;24.12;41.67;100089.62;4435196;32;32907;-87
2022/08/08 01:44:50;;;;;;;;;;;;;;;24.04;42.02;100085.94;4435846;32;34089;-84
2022/08/08 01:47:48;;;;;;;;;;;;;;;23.86;42.85;100075.06;4439547;32;36424;-84
2022/08/08 01:50:52;;;;;;;;;;;;;;;23.96;42.69;100075.88;4447263;32;32980;-84
2022/08/08 01:53:34;;;;;;;;;;;;;;;23.71;43.26;100078.22;4451201;32;33308;-84
2022/08/08 01:56:29;;;;;;;;;;;;;;;23.60;44.49;100082.88;4439652;32;33248;-84
2022/08/08 01:59:04;;;;;;;;;;;;;;;23.56;45.50;100084.16;4441125;32;34750;-84
2022/08/08 02:01:54;;;;;;;;;;;;;;;23.70;44.40;100087.28;4441423;32;34216;-84
2022/08/08 02:04:32;;;;;;;;;;;;;;;23.68;44.46;100085.72;4438626;32;31614;-84
2022/08/08 02:07:05;;;;;;;;;;;;;;;23.67;44.50;100082.19;4428715;32;33365;-84
2022/08/08 02:09:42;;;;;;;;;;;;;;;23.69;44.29;100090.12;4440616;32;34390;-84
2022/08/08 02:12:31;;;;;;;;;;;;;;;23.52;44.58;100087.13;4454669;32;33919;-84
2022/08/08 02:15:08;;;;;;;;;;;;;;;23.25;44.87;100087.84;4438997;32;33256;-84
2022/08/08 02:17:43;;;;;;;;;;;;;;;23.42;44.46;100096.22;4439827;32;34168;-84
2022/08/08 02:20:16;;;;;;;;;;;;;;;23.64;44.04;100100.47;4440998;32;35066;-84
2022/08/08 02:23:09;;;;;;;;;;;;;;;23.66;43.65;100099.34;4429312;32;33279;-84
2022/08/08 02:25:48;;;;;;;;;;;;;;;23.65;44.07;100102.22;4432453;32;34334;-84
2022/08/08 02:28:19;;;;;;;;;;;;;;;23.87;43.02;100109.09;4454048;32;34068;-84
2022/08/08 02:30:52;;;;;;;;;;;;;;;23.97;42.66;100104.53;4454415;32;34309;-84
2022/08/08 02:33:28;;;;;;;;;;;;;;;23.84;42.99;100114.81;4454657;32;34249;-84
2022/08/08 02:36:46;;;;;;;;;;;;;;;23.53;44.29;100125.72;4454274;32;34097;-84
2022/08/08 02:39:30;;;;;;;;;;;;;;;23.59;44.26;100117.06;4436395;32;34683;-84
2022/08/08 02:42:25;;;;;;;;;;;;;;;23.55;45.25;100120.19;4452888;32;34985;-84
2022/08/08 02:45:28;;;;;;;;;;;;;;;23.49;44.91;100117.06;4452874;32;33897;-84
2022/08/08 02:47:58;;;;;;;;;;;;;;;23.44;44.52;100113.09;4440965;32;32749;-84
2022/08/08 02:50:43;;;;;;;;;;;;;;;23.37;45.57;100117.38;4453483;32;34242;-84
2022/08/08 02:53:41;;;;;;;;;;;;;;;23.52;45.73;100106.00;4428161;32;34392;-84
2022/08/08 02:56:25;;;;;;;;;;;;;;;23.61;45.00;100104.31;4440317;32;32381;-84
2022/08/08 02:59:13;;;;;;;;;;;;;;;23.54;45.21;100116.62;4451914;32;32967;-84
2022/08/08 03:02:13;;;;;;;;;;;;;;;23.39;45.08;100123.44;4453031;32;34589;-84
2022/08/08 03:04:50;;;;;;;;;;;;;;;23.27;45.76;100121.91;4427780;32;33655;-84
2022/08/08 03:08:01;;;;;;;;;;;;;;;23.24;46.18;100131.09;4440068;32;32857;-84
2022/08/08 03:10:29;;;;;;;;;;;;;;;23.67;44.44;100130.72;4440362;32;33135;-84
2022/08/08 03:13:32;;;;;;;;;;;;;;;23.77;44.17;100123.47;4452998;32;33575;-84
2022/08/08 03:16:27;;;;;;;;;;;;;;;23.82;44.04;100127.56;4428678;32;34464;-84
2022/08/08 03:19:22;;;;;;;;;;;;;;;23.53;45.17;100133.81;4440098;32;34084;-84
2022/08/08 03:21:51;;;;;;;;;;;;;;;23.66;44.77;100134.41;4452746;32;33546;-84
2022/08/08 03:24:27;;;;;;;;;;;;;;;23.61;45.23;100131.25;4441556;32;34068;-84
2022/08/08 03:27:02;;;;;;;;;;;;;;;23.79;44.77;100135.97;4439771;32;34038;-84
2022/08/08 03:29:40;;;;;;;;;;;;;;;23.65;46.00;100132.72;4434221;32;33658;-84
2022/08/08 03:35:20;;;;;;;;;;;;;;;23.67;45.84;100128.00;4443419;32;33894;-84
2022/08/08 03:37:48;;;;;;;;;;;;;;;23.63;45.90;100129.25;4431854;32;32948;-84
2022/08/08 03:40:36;;;;;;;;;;;;;;;23.59;46.66;100126.97;4428690;32;33740;-84
2022/08/08 03:43:08;;;;;;;;;;;;;;;23.58;46.60;100128.84;4440210;32;33651;-84
2022/08/08 03:45:46;;;;;;;;;;;;;;;23.72;45.87;100128.44;4428535;32;33833;-84
2022/08/08 03:48:35;;;;;;;;;;;;;;;23.69;46.08;100126.03;4428888;32;33004;-84
2022/08/08 03:51:24;;;;;;;;;;;;;;;23.29;47.21;100136.06;4441673;32;33884;-84
2022/08/08 03:54:12;;;;;;;;;;;;;;;23.25;46.84;100135.50;4429559;32;32326;-84
2022/08/08 03:57:01;;;;;;;;;;;;;;;23.33;46.02;100140.19;4431323;32;34441;-84
2022/08/08 03:59:49;;;;;;;;;;;;;;;23.59;45.24;100127.84;4442430;32;34214;-84
2022/08/08 04:02:39;;;;;;;;;;;;;;;23.56;45.51;100122.75;4442572;32;34219;-84
2022/08/08 04:05:19;;;;;;;;;;;;;;;23.38;46.20;100140.62;4441292;32;33058;-84
2022/08/08 04:07:56;;;;;;;;;;;;;;;23.07;46.87;100139.84;4439291;32;33397;-84
2022/08/08 04:10:25;;;;;;;;;;;;;;;23.23;47.28;100135.63;4439940;32;34251;-85
2022/08/08 04:13:00;;;;;;;;;;;;;;;23.49;45.99;100140.47;4440982;32;35512;-84
2022/08/08 04:15:45;;;;;;;;;;;;;;;23.42;45.71;100142.03;4432416;32;34254;-84
2022/08/08 04:18:35;;;;;;;;;;;;;;;23.50;45.95;100150.28;4441687;32;33525;-84
2022/08/08 04:21:16;;;;;;;;;;;;;;;23.47;46.28;100147.84;4440773;32;35240;-84
2022/08/08 04:23:49;;;;;;;;;;;;;;;23.59;46.09;100152.09;4439050;32;34321;-84
2022/08/08 04:26:37;;;;;;;;;;;;;;;23.41;46.45;100156.50;4441131;32;32419;-84
2022/08/08 04:29:23;;;;;;;;;;;;;;;23.67;46.19;100162.22;4441340;32;34094;-84
2022/08/08 04:31:51;;;;;;;;;;;;;;;23.14;47.42;100160.72;4439945;32;34960;-84
2022/08/08 04:34:26;;;;;;;;;;;;;;;23.26;46.86;100169.50;4440522;32;34173;-84
2022/08/08 04:36:59;;;;;;;;;;;;;;;23.55;45.89;100156.09;4434306;32;32974;-84
2022/08/08 04:39:31;;;;;;;;;;;;;;;23.70;45.68;100156.53;4440029;32;33907;-84
2022/08/08 04:42:19;;;;;;;;;;;;;;;23.94;45.69;100156.09;4432448;32;33871;-84
2022/08/08 04:44:50;;;;;;;;;;;;;;;23.91;45.98;100159.91;4426877;32;32914;-84
2022/08/08 04:47:21;;;;;;;;;;;;;;;23.91;46.76;100159.91;4438812;32;33492;-84
2022/08/08 04:49:51;;;;;;;;;;;;;;;24.07;46.91;100158.47;4440159;32;31995;-84
2022/08/08 04:52:34;;;;;;;;;;;;;;;23.95;47.20;100163.19;4441609;32;33978;-84
2022/08/08 04:55:03;;;;;;;;;;;;;;;24.08;48.52;100174.53;4439383;32;32888;-84
2022/08/08 04:57:34;;;;;;;;;;;;;;;24.30;46.75;100169.78;4439636;32;34114;-84
2022/08/08 05:00:03;;;;;;;;;;;;;;;24.41;45.67;100166.97;4426095;32;33397;-84
2022/08/08 05:02:32;;;;;;;;;;;;;;;24.62;44.84;100175.69;4426353;32;33931;-84
2022/08/08 05:05:03;;;;;;;;;;;;;;;24.52;45.40;100180.25;4426986;32;33632;-84
2022/08/08 05:07:45;;;;;;;;;;;;;;;24.31;47.87;100179.56;4440558;32;33574;-84
2022/08/08 05:10:14;;;;;;;;;;;;;;;24.61;45.79;100179.37;4439608;32;34566;-84
2022/08/08 05:12:42;;;;;;;;;;;;;;;24.61;45.82;100171.28;4439427;32;34021;-84
2022/08/08 05:15:31;;;;;;;;;;;;;;;24.55;45.79;100171.88;4441567;32;34146;-84
2022/08/08 05:18:19;;;;;;;;;;;;;;;24.42;46.23;100171.34;4452246;32;33322;-84
2022/08/08 05:20:50;;;;;;;;;;;;;;;24.30;47.01;100177.88;4440102;32;33385;-84
2022/08/08 05:23:22;;;;;;;;;;;;;;;24.14;47.65;100170.41;4426401;32;33511;-85
2022/08/08 05:25:54;;;;;;;;;;;;;;;24.02;48.63;100180.47;4438960;32;34801;-84
2022/08/08 05:28:28;;;;;;;;;;;;;;;24.09;48.78;100184.31;4443970;32;32555;-84
2022/08/08 05:31:17;;;;;;;;;;;;;;;24.28;48.59;100181.59;4436558;32;32599;-84
2022/08/08 05:34:13;;;;;;;;;;;;;;;24.39;48.44;100191.38;4446310;32;33026;-84
2022/08/08 05:36:42;;;;;;;;;;;;;;;24.39;48.90;100185.13;4444558;32;34468;-84
2022/08/08 05:39:11;;;;;;;;;;;;;;;24.43;49.20;100189.25;4444645;32;33266;-84
2022/08/08 05:41:40;;;;;;;;;;;;;;;24.19;49.93;100182.44;4444371;32;34573;-84
2022/08/08 05:44:25;;;;;;;;;;;;;;;24.28;50.09;100189.69;4433130;32;33041;-84
2022/08/08 05:46:57;;;;;;;;;;;;;;;24.62;49.61;100189.19;4432221;32;33814;-84
2022/08/08 05:49:30;;;;;;;;;;;;;;;24.92;48.98;100184.50;4441500;32;33501;-84
2022/08/08 05:54:33;;;;;;;;;;;;;;;24.89;49.11;100188.38;4436176;32;33962;-84
2022/08/08 05:57:21;;;;;;;;;;;;;;;24.95;49.65;100189.59;4430631;32;32856;-84
2022/08/08 06:00:18;;;;;;;;;;;;;;;24.90;49.63;100194.59;4431094;32;32740;-84
2022/08/08 06:03:12;;;;;;;;;;;;;;;25.08;49.39;100187.44;4440078;32;33917;-84
2022/08/08 06:05:49;;;;;;;;;;;;;;;25.16;48.61;100173.16;4429339;32;33138;-84
2022/08/08 06:08:26;;;;;;;;;;;;;;;24.78;48.97;100181.31;4441119;32;33977;-84
2022/08/08 06:11:10;;;;;;;;;;;;;;;24.45;50.46;100182.72;4435889;32;34892;-84
2022/08/08 06:13:50;;;;;;;;;;;;;;;24.52;50.56;100182.97;4440831;32;34614;-84
2022/08/08 06:16:21;;;;;;;;;;;;;;;24.69;50.68;100193.00;4426992;32;33519;-84
2022/08/08 06:18:56;;;;;;;;;;;;;;;25.03;49.39;100192.41;4441157;32;33776;-84
2022/08/08 06:21:26;;;;;;;;;;;;;;;25.10;49.72;100193.53;4440935;32;33130;-84
2022/08/08 06:24:18;;;;;;;;;;;;;;;25.21;49.46;100189.75;4440897;32;35315;-84
2022/08/08 06:27:05;;;;;;;;;;;;;;;25.20;48.08;100188.91;4440783;32;33749;-84
2022/08/08 06:29:45;;;;;;;;;;;;;;;25.43;47.24;100193.91;4439307;32;33982;-84
2022/08/08 06:32:25;;;;;;;;;;;;;;;25.65;46.85;100190.75;4423735;32;33825;-84
2022/08/08 06:34:59;;;;;;;;;;;;;;;25.64;46.27;100180.94;4437323;32;33847;-84
2022/08/08 06:37:51;;;;;;;;;;;;;;;25.81;46.25;100189.22;4425108;32;34076;-84
2022/08/08 06:40:24;;;;;;;;;;;;;;;25.34;48.43;100184.00;4440979;32;34519;-84
2022/08/08 06:42:55;;;;;;;;;;;;;;;25.03;49.27;100197.81;4437333;32;32042;-84
2022/08/08 06:45:25;;;;;;;;;;;;;;;24.92;49.49;100198.84;4425022;32;34684;-84
2022/08/08 06:47:53;;;;;;;;;;;;;;;24.96;49.44;100199.41;4437829;32;35092;-84
2022/08/08 06:50:38;;;;;;;;;;;;;;;25.12;48.74;100199.66;4426072;32;34111;-84
2022/08/08 06:53:09;;;;;;;;;;;;;;;25.27;48.45;100192.72;4424357;32;33662;-84
2022/08/08 06:55:54;;;;;;;;;;;;;;;25.47;48.03;100200.69;4427017;32;33263;-84
2022/08/08 06:58:33;;;;;;;;;;;;;;;25.49;46.52;100198.69;4425937;32;33107;-84
2022/08/08 07:04:06;;;;;;;;;;;;;;;25.74;46.93;100200.63;4428185;32;33436;-84
2022/08/08 07:07:00;;;;;;;;;;;;;;;25.92;46.84;100199.78;4413634;32;33031;-84
2022/08/08 07:09:56;;;;;;;;;;;;;;;26.17;44.64;100190.88;4436777;32;34969;-84
2022/08/08 07:12:38;;;;;;;;;;;;;;;26.27;43.31;100180.78;4426048;32;35776;-84
2022/08/08 07:15:13;;;;;;;;;;;;;;;26.11;44.05;100185.22;4423292;32;32948;-84
2022/08/08 07:18:07;;;;;;;;;;;;;;;26.08;44.58;100186.41;4436989;32;35320;-84
2022/08/08 07:20:58;;;;;;;;;;;;;;;26.27;44.15;100182.66;4413952;32;33166;-84
2022/08/08 07:23:51;;;;;;;;;;;;;;;26.19;43.36;100183.44;4437442;32;34161;-84
2022/08/08 07:26:33;;;;;;;;;;;;;;;26.36;42.66;100192.53;4437185;32;32712;-84
2022/08/08 07:29:07;;;;;;;;;;;;;;;26.21;43.89;100192.28;4423196;32;33471;-84
2022/08/08 07:31:57;;;;;;;;;;;;;;;26.15;43.53;100200.16;4435558;32;34261;-84
2022/08/08 07:34:33;;;;;;;;;;;;;;;26.29;44.92;100200.44;4429226;32;34840;-84
2022/08/08 07:37:07;;;;;;;;;;;;;;;26.50;43.53;100194.69;4436312;32;32562;-84
2022/08/08 07:39:48;;;;;;;;;;;;;;;26.76;41.83;100196.50;4423527;32;33111;-84
2022/08/08 07:42:28;;;;;;;;;;;;;;;26.80;42.65;100203.31;4425265;32;34097;-84
2022/08/08 07:45:02;;;;;;;;;;;;;;;27.08;40.96;100203.97;4436414;32;33162;-84
2022/08/08 07:47:37;;;;;;;;;;;;;;;27.00;40.99;100210.16;4412820;32;33694;-84
2022/08/08 07:50:11;;;;;;;;;;;;;;;27.09;40.30;100213.78;4437001;32;33925;-84
2022/08/08 07:52:50;;;;;;;;;;;;;;;27.03;39.69;100209.00;4434351;32;33930;-84
2022/08/08 07:55:26;;;;;;;;;;;;;;;26.86;40.05;100207.22;4423043;32;32913;-84
2022/08/08 08:03:45;;;;;;;;;;;;;;;27.47;38.29;100216.97;4436502;32;33925;-84
2022/08/08 08:06:17;;;;;;;;;;;;;;;27.59;37.01;100215.66;4424114;32;34549;-84
2022/08/08 08:08:50;;;;;;;;;;;;;;;27.59;37.57;100212.09;4424922;32;33191;-84
2022/08/08 08:11:23;;;;;;;;;;;;;;;27.70;37.39;100218.03;4424317;32;32894;-84
2022/08/08 08:14:29;;;;;;;;;;;;;;;27.69;37.17;100210.91;4434257;32;35735;-84
2022/08/08 08:17:02;;;;;;;;;;;;;;;27.98;37.06;100204.19;4423753;32;34132;-84
2022/08/08 08:19:41;;;;;;;;;;;;;;;28.22;37.06;100217.75;4437178;32;33358;-85
2022/08/08 08:22:14;;;;;;;;;;;;;;;28.48;34.67;100212.12;4436050;32;32716;-84
2022/08/08 08:25:01;;;;;;;;;;;;;;;28.73;36.46;100210.22;4418786;32;33905;-84
2022/08/08 08:27:35;;;;;;;;;;;;;;;29.02;34.84;100208.78;4430582;32;34804;-84
2022/08/08 08:30:04;;;;;;;;;;;;;;;29.39;34.02;100210.81;4436054;32;33431;-84
2022/08/08 08:32:34;;;;;;;;;;;;;;;29.46;32.95;100213.66;4437279;32;33559;-84
2022/08/08 08:35:22;;;;;;;;;;;;;;;29.52;31.52;100210.19;4436843;32;35041;-84
2022/08/08 08:38:12;;;;;;;;;;;;;;;29.43;30.67;100214.84;4413225;32;34408;-84
2022/08/08 08:40:47;;;;;;;;;;;;;;;29.26;32.00;100229.56;4424095;32;32397;-84
2022/08/08 08:43:18;;;;;;;;;;;;;;;28.81;32.77;100226.47;4412018;32;32920;-84
2022/08/08 08:45:55;;;;;;;;;;;;;;;29.26;33.19;100241.28;4438848;32;34826;-84
2022/08/08 08:48:26;;;;;;;;;;;;;;;29.43;33.57;100238.47;4452479;32;33814;-84
2022/08/08 08:51:04;;;;;;;;;;;;;;;29.31;34.62;100240.75;4428325;32;33369;-84
2022/08/08 08:53:38;;;;;;;;;;;;;;;29.14;34.68;100239.12;4424505;32;33431;-84
2022/08/08 08:56:35;;;;;;;;;;;;;;;29.17;34.92;100236.91;4441958;32;35692;-84
2022/08/08 08:59:09;;;;;;;;;;;;;;;29.22;34.42;100236.38;4439667;32;33195;-84
2022/08/08 09:01:46;;;;;;;;;;;;;;;29.59;34.50;100242.00;4441036;32;33008;-84
2022/08/08 09:04:22;;;;;;;;;;;;;;;29.53;33.83;100231.81;4439051;32;34601;-84
2022/08/08 09:07:00;;;;;;;;;;;;;;;28.89;35.19;100232.91;4439735;32;34982;-84
2022/08/08 09:09:39;;;;;;;;;;;;;;;29.02;35.19;100234.09;4440842;32;34908;-84
2022/08/08 09:12:13;;;;;;;;;;;;;;;28.98;35.34;100235.47;4426760;32;33058;-84
2022/08/08 09:14:42;;;;;;;;;;;;;;;28.90;35.53;100240.03;4439211;32;34488;-85
2022/08/08 09:17:15;;;;;;;;;;;;;;;28.87;37.38;100234.97;4440433;32;35292;-84
2022/08/08 09:19:57;;;;;;;;;;;;;;;29.24;36.24;100234.31;4439884;32;33929;-84
2022/08/08 09:22:46;;;;;;;;;;;;;;;29.08;36.41;100246.97;4436053;32;33477;-84
2022/08/08 09:25:15;;;;;;;;;;;;;;;28.86;37.55;100247.69;4439191;32;32893;-84
2022/08/08 09:27:43;;;;;;;;;;;;;;;28.84;37.05;100241.59;4426507;32;33010;-84
2022/08/08 09:30:26;;;;;;;;;;;;;;;29.00;36.73;100238.00;4427488;32;33238;-84
2022/08/08 09:32:56;;;;;;;;;;;;;;;28.84;37.19;100233.44;4425370;32;32725;-84
2022/08/08 09:38:54;;;;;;;;;;;;;;;28.60;37.38;100244.37;4441137;32;34004;-84
2022/08/08 09:41:37;;;;;;;;;;;;;;;28.84;37.48;100233.44;4439503;32;34617;-84
2022/08/08 09:44:40;;;;;;;;;;;;;;;28.84;37.73;100233.44;4439638;32;32576;-84
2022/08/08 09:47:08;;;;;;;;;;;;;;;29.14;36.67;100222.81;4422889;32;33056;-84
2022/08/08 09:49:58;;;;;;;;;;;;;;;29.09;36.86;100228.78;4436252;32;33662;-84
2022/08/08 09:52:33;;;;;;;;;;;;;;;29.05;37.38;100219.28;4435652;32;34248;-84
2022/08/08 09:55:29;;;;;;;;;;;;;;;28.97;37.31;100216.63;4437799;32;32406;-84
2022/08/08 09:58:20;;;;;;;;;;;;;;;28.65;37.89;100206.66;4418241;32;32832;-84
2022/08/08 10:01:01;;;;;;;;;;;;;;;28.45;39.28;100214.34;4437448;32;33584;-84
2022/08/08 10:03:43;;;;;;;;;;;;;;;28.40;39.30;100219.47;4424301;32;34974;-84
2022/08/08 10:06:17;;;;;;;;;;;;;;;28.84;37.68;100217.97;4423252;32;33387;-84
2022/08/08 10:08:46;;;;;;;;;;;;;;;28.68;38.44;100212.59;4434409;32;33846;-84
2022/08/08 10:11:16;;;;;;;;;;;;;;;28.52;38.60;100212.63;4435631;32;33922;-84
2022/08/08 10:14:06;;;;;;;;;;;;;;;28.41;39.19;100213.00;4436526;32;34891;-84
2022/08/08 10:16:41;;;;;;;;;;;;;;;28.42;38.82;100220.97;4423627;32;33744;-84
2022/08/08 10:19:21;;;;;;;;;;;;;;;28.22;40.67;100233.19;4426316;32;34729;-83
2022/08/08 10:21:52;;;;;;;;;;;;;;;28.49;38.68;100234.72;4437619;32;32960;-84
2022/08/08 10:24:22;;;;;;;;;;;;;;;28.54;38.81;100237.78;4425681;32;33486;-84
2022/08/08 10:27:04;;;;;;;;;;;;;;;28.69;37.73;100230.59;4425475;32;33412;-84
2022/08/08 10:29:53;;;;;;;;;;;;;;;28.28;38.75;100224.34;4437646;32;33567;-84
2022/08/08 10:32:35;;;;;;;;;;;;;;;28.18;38.48;100219.09;4436855;32;34996;-84
2022/08/08 10:35:20;;;;;;;;;;;;;;;28.75;38.53;100208.16;4424972;32;34566;-84
2022/08/08 10:38:18;;;;;;;;;;;;;;;28.80;38.30;100205.75;4427251;32;34991;-84
2022/08/08 10:40:50;;;;;;;;;;;;;;;28.70;38.14;100201.56;4425221;32;34946;-84
2022/08/08 10:43:20;;;;;;;;;;;;;;;28.62;39.43;100202.41;4437890;32;34680;-84
2022/08/08 10:45:51;;;;;;;;;;;;;;;28.80;37.90;100199.47;4426360;32;33715;-84
2022/08/08 10:48:32;;;;;;;;;;;;;;;28.87;38.51;100199.63;4441725;32;34128;-84
2022/08/08 10:51:23;;;;;;;;;;;;;;;28.55;39.44;100206.84;4442859;32;34657;-84
2022/08/08 10:54:00;;;;;;;;;;;;;;;28.57;39.56;100221.09;4453200;32;33978;-84
2022/08/08 10:56:35;;;;;;;;;;;;;;;28.54;39.42;100235.06;4439774;32;32932;-84
2022/08/08 10:59:17;;;;;;;;;;;;;;;28.70;40.38;100232.28;4439803;32;31440;-84
2022/08/08 11:01:46;;;;;;;;;;;;;;;28.48;40.70;100238.44;4439699;32;34231;-84
2022/08/08 11:04:21;;;;;;;;;;;;;;;28.70;41.47;100234.16;4427756;32;33406;-84
2022/08/08 11:07:06;;;;;;;;;;;;;;;28.72;41.92;100224.81;4442560;32;34539;-84
2022/08/08 11:09:49;;;;;;;;;;;;;;;28.87;42.05;100227.66;4441283;32;32635;-84
2022/08/08 11:12:23;;;;;;;;;;;;;;;28.11;43.46;100226.25;4440311;32;33893;-84
2022/08/08 11:15:03;;;;;;;;;;;;;;;28.03;43.89;100223.50;4440276;32;35943;-84
2022/08/08 11:17:31;;;;;;;;;;;;;;;28.38;42.98;100229.63;4440472;32;35046;-85
2022/08/08 11:20:24;;;;;;;;;;;;;;;28.28;44.04;100221.62;4443096;32;33105;-84
2022/08/08 11:22:59;;;;;;;;;;;;;;;28.52;43.34;100220.78;4440328;32;34281;-85
2022/08/08 11:25:34;;;;;;;;;;;;;;;28.60;42.90;100219.94;4440833;32;34516;-84
2022/08/08 11:28:24;;;;;;;;;;;;;;;28.57;43.21;100221.09;4442043;32;34466;-84
2022/08/08 11:31:00;;;;;;;;;;;;;;;28.28;43.90;100210.78;4440476;32;34019;-84
2022/08/08 11:33:35;;;;;;;;;;;;;;;28.31;43.72;100211.28;4440704;32;34295;-84
2022/08/08 11:36:28;;;;;;;;;;;;;;;28.35;45.11;100221.84;4430028;32;33522;-85
2022/08/08 11:38:58;;;;;;;;;;;;;;;28.79;43.22;100208.66;4440042;32;34245;-84
2022/08/08 11:41:36;;;;;;;;;;;;;;;29.03;42.88;100208.59;4441583;32;34071;-84
2022/08/08 11:44:05;;;;;;;;;;;;;;;28.90;42.90;100226.44;4426874;32;32586;-84
2022/08/08 11:46:36;;;;;;;;;;;;;;;28.36;44.98;100223.53;4437374;32;34172;-84
2022/08/08 11:49:12;;;;;;;;;;;;;;;28.01;45.85;100230.97;4437341;32;34076;-84
2022/08/08 11:51:46;;;;;;;;;;;;;;;27.98;46.52;100242.19;4437078;32;33325;-84
2022/08/08 11:57:20;;;;;;;;;;;;;;;27.81;47.03;100236.72;4426806;32;34981;-85
2022/08/08 12:00:00;;;;;;;;;;;;;;;27.41;49.06;100239.34;4434465;32;34174;-85
2022/08/08 12:02:53;;;;;;;;;;;;;;;27.78;47.24;100237.06;4411746;32;33476;-84
2022/08/08 12:05:31;;;;;;;;;;;;;;;27.98;46.90;100248.44;4437050;32;34293;-85
2022/08/08 12:08:00;;;;;;;;;;;;;;;27.91;46.65;100241.13;4436736;32;33928;-84
2022/08/08 12:10:33;;;;;;;;;;;;;;;28.01;46.63;100249.97;4425071;32;34853;-84
2022/08/08 12:13:06;;;;;;;;;;;;;;;27.84;47.12;100248.28;4413152;32;32620;-84
2022/08/08 12:18:22;;;;;;;;;;;;;;;28.02;46.61;100238.13;4437973;32;34702;-84
2022/08/08 12:20:55;;;;;;;;;;;;;;;27.92;47.24;100240.16;4437206;32;34060;-84
2022/08/08 12:23:34;;;;;;;;;;;;;;;27.31;47.75;100240.31;4436483;32;33030;-84
2022/08/08 12:26:24;;;;;;;;;;;;;;;27.09;48.39;100240.91;4436658;32;34635;-84
2022/08/08 12:29:22;;;;;;;;;;;;;;;26.73;48.64;100249.16;4425342;32;34255;-84
2022/08/08 12:32:11;;;;;;;;;;;;;;;27.06;48.56;100243.87;4436980;32;33689;-84
2022/08/08 12:35:00;;;;;;;;;;;;;;;26.74;48.97;100240.03;4438253;32;33296;-84
2022/08/08 12:37:46;;;;;;;;;;;;;;;27.07;48.15;100242.91;4439538;32;33972;-80
2022/08/08 12:40:38;;;;;;;;;;;;;;;27.21;47.55;100255.03;4419921;32;34291;-80
2022/08/08 12:43:28;;;;;;;;;;;;;;;27.12;47.49;100245.16;4428034;32;33221;-81
2022/08/08 12:46:14;;;;;;;;;;;;;;;27.44;46.63;100250.72;4426382;32;31777;-81
2022/08/08 12:48:53;;;;;;;;;;;;;;;27.27;47.00;100257.91;4439056;32;34015;-81
2022/08/08 12:51:49;;;;;;;;;;;;;;;27.27;47.03;100259.78;4438213;32;34682;-81
2022/08/08 12:54:35;;;;;;;;;;;;;;;27.44;46.86;100266.97;4438127;32;33944;-80
2022/08/08 12:57:11;;;;;;;;;;;;;;;27.16;47.31;100258.22;4425222;32;33120;-81
2022/08/08 12:59:52;;;;;;;;;;;;;;;27.02;48.21;100273.22;4425022;32;32762;-81
2022/08/08 13:02:35;;;;;;;;;;;;;;;26.95;48.44;100264.00;4425176;32;32926;-81
2022/08/08 13:05:19;;;;;;;;;;;;;;;27.01;48.44;100259.78;4448155;32;34383;-81
2022/08/08 13:08:19;;;;;;;;;;;;;;;26.98;47.83;100263.69;4427693;32;33589;-81
2022/08/08 13:13:37;;;;;;;;;;;;;;;26.85;48.19;100265.13;4423146;32;34542;-81
2022/08/08 13:16:20;;;;;;;;;;;;;;;27.28;46.98;100256.91;4430698;32;33696;-81
2022/08/08 13:19:03;;;;;;;;;;;;;;;27.03;47.46;100255.06;4437486;32;31980;-81
2022/08/08 13:24:36;;;;;;;;;;;;;;;27.11;45.25;100255.16;4433956;32;32941;-81
2022/08/08 13:27:28;;;;;;;;;;;;;;;27.03;45.12;100255.94;4424549;32;34326;-81
2022/08/08 13:30:12;;;;;;;;;;;;;;;27.25;44.78;100256.38;4437018;32;33141;-81
2022/08/08 13:32:57;;;;;;;;;;;;;;;27.55;44.77;100252.25;4436787;32;32630;-81
2022/08/08 13:35:31;;;;;;;;;;;;;;;27.42;45.22;100251.88;4434589;32;34052;-81
2022/08/08 13:40:56;;;;;;;;;;;;;;;27.54;44.45;100240.56;4438127;32;33787;-81
2022/08/08 13:43:26;;;;;;;;;;;;;;;27.47;44.76;100234.09;4408107;32;33767;-81
2022/08/08 13:48:56;;;;;;;;;;;;;;;27.62;43.82;100231.56;4436069;32;33765;-81
2022/08/08 13:51:58;;;;;;;;;;;;;;;27.61;43.76;100227.16;4416198;32;31826;-81
2022/08/08 13:57:13;;;;;;;;;;;;;;;27.95;41.99;100215.34;4433768;32;34270;-81
2022/08/08 13:59:47;;;;;;;;;;;;;;;27.30;44.88;100218.81;4427630;32;35240;-81
2022/08/08 14:02:22;;;;;;;;;;;;;;;27.52;43.95;100218.16;4434664;32;33288;-81
2022/08/08 14:05:09;;;;;;;;;;;;;;;28.10;42.10;100213.66;4437993;32;34272;-81
2022/08/08 14:07:54;;;;;;;;;;;;;;;28.12;42.51;100206.22;4416960;32;33022;-81
2022/08/08 14:10:40;;;;;;;;;;;;;;;27.60;43.66;100211.91;4431540;32;32956;-80
2022/08/08 14:16:04;;;;;;;;;;;;;;;27.81;41.03;100211.44;4437226;32;32928;-81
2022/08/08 14:18:49;;;;;;;;;;;;;;;27.69;41.22;100204.62;4426504;32;32713;-80
2022/08/08 14:21:20;;;;;;;;;;;;;;;27.59;41.72;100207.50;4440224;32;33917;-81
2022/08/08 14:23:52;;;;;;;;;;;;;;;27.59;41.77;100215.66;4413823;32;33619;-81
2022/08/08 14:26:48;;;;;;;;;;;;;;;27.53;41.94;100216.28;4423565;32;33815;-81
2022/08/08 14:29:22;;;;;;;;;;;;;;;27.62;43.47;100218.00;4426173;32;33143;-81